createdAt,value
2022-09-06T00:01:12.231Z,20.67
2022-09-06T00:03:40.138Z,20.65
2022-09-06T00:06:13.283Z,20.57
2022-09-06T00:08:41.124Z,20.62
2022-09-06T00:11:09.222Z,20.66
2022-09-06T00:13:37.789Z,20.74
2022-09-06T00:16:08.028Z,20.64
2022-09-06T00:18:37.618Z,20.61
2022-09-06T00:21:05.829Z,20.48
2022-09-06T00:23:33.569Z,20.51
2022-09-06T00:26:05.346Z,20.48
2022-09-06T00:28:33.179Z,20.43
2022-09-06T00:31:09.312Z,20.36
2022-09-06T00:33:38.635Z,20.29
2022-09-06T00:36:06.487Z,20.29
2022-09-06T00:38:34.126Z,20.28
2022-09-06T00:41:01.924Z,20.24
2022-09-06T00:43:29.845Z,20.33
2022-09-06T00:45:58.357Z,20.33
2022-09-06T00:48:26.312Z,20.30
2022-09-06T00:50:59.697Z,20.25
2022-09-06T00:53:28.033Z,20.28
2022-09-06T00:55:56.884Z,20.30
2022-09-06T00:58:25.860Z,20.22
2022-09-06T01:00:53.801Z,20.19
2022-09-06T01:03:22.698Z,20.15
2022-09-06T01:06:05.486Z,20.09
2022-09-06T01:08:47.059Z,20.08
2022-09-06T01:11:31.599Z,20.07
2022-09-06T01:14:12.134Z,20.09
2022-09-06T01:16:44.745Z,20.16
2022-09-06T01:19:35.787Z,20.23
2022-09-06T01:22:19.815Z,20.18
2022-09-06T01:25:01.593Z,20.07
2022-09-06T01:27:56.649Z,20.03
2022-09-06T01:30:25.879Z,19.99
2022-09-06T01:33:01.649Z,20.03
2022-09-06T01:35:34.490Z,20.11
2022-09-06T01:38:03.125Z,20.07
2022-09-06T01:40:30.740Z,20.06
2022-09-06T01:42:59.773Z,20.04
2022-09-06T01:45:39.752Z,20.04
2022-09-06T01:48:13.405Z,20.06
2022-09-06T01:50:59.769Z,20.03
2022-09-06T01:53:50.308Z,20.01
2022-09-06T01:56:31.559Z,19.94
2022-09-06T01:59:35.177Z,19.98
2022-09-06T02:02:07.213Z,19.89
2022-09-06T02:04:42.017Z,19.94
2022-09-06T02:07:16.000Z,19.90
2022-09-06T02:09:46.959Z,19.92
2022-09-06T02:12:17.875Z,20.19
2022-09-06T02:14:52.243Z,20.33
2022-09-06T02:17:24.831Z,20.50
2022-09-06T02:19:58.045Z,20.65
2022-09-06T02:22:30.087Z,20.78
2022-09-06T02:25:00.425Z,20.80
2022-09-06T02:27:31.045Z,20.80
2022-09-06T02:30:02.892Z,20.80
2022-09-06T02:32:32.796Z,20.82
2022-09-06T02:35:00.511Z,20.87
2022-09-06T02:37:28.494Z,20.95
2022-09-06T02:39:56.668Z,21.09
2022-09-06T02:42:25.960Z,21.14
2022-09-06T02:44:53.561Z,21.22
2022-09-06T02:47:22.478Z,21.24
2022-09-06T02:49:50.569Z,21.28
2022-09-06T02:52:18.253Z,21.32
2022-09-06T02:54:46.002Z,21.40
2022-09-06T02:57:14.098Z,21.49
2022-09-06T02:59:41.887Z,21.57
2022-09-06T03:02:09.786Z,21.76
2022-09-06T03:04:38.777Z,21.75
2022-09-06T03:07:06.390Z,21.74
2022-09-06T03:09:34.018Z,21.67
2022-09-06T03:12:01.618Z,21.63
2022-09-06T03:14:29.853Z,21.58
2022-09-06T03:16:57.644Z,21.51
2022-09-06T03:19:25.308Z,21.53
2022-09-06T03:21:54.266Z,21.49
2022-09-06T03:24:21.960Z,21.48
2022-09-06T03:26:49.583Z,21.45
2022-09-06T03:29:17.182Z,21.46
2022-09-06T03:31:44.809Z,21.53
2022-09-06T03:34:12.432Z,21.64
2022-09-06T03:36:40.147Z,21.72
2022-09-06T03:39:09.192Z,21.74
2022-09-06T03:41:38.852Z,21.70
2022-09-06T03:44:06.553Z,21.16
2022-09-06T03:46:34.277Z,21.02
2022-09-06T03:49:01.981Z,21.02
2022-09-06T03:51:29.674Z,20.88
2022-09-06T03:53:57.680Z,20.96
2022-09-06T03:56:26.700Z,20.89
2022-09-06T03:58:54.742Z,20.96
2022-09-06T04:01:22.394Z,21.01
2022-09-06T04:03:50.209Z,20.90
2022-09-06T04:06:17.948Z,20.79
2022-09-06T04:08:45.767Z,20.73
2022-09-06T04:11:13.835Z,20.69
2022-09-06T04:13:42.996Z,20.62
2022-09-06T04:16:11.313Z,20.39
2022-09-06T04:18:38.949Z,20.32
2022-09-06T04:21:07.040Z,20.30
2022-09-06T04:23:39.657Z,20.41
2022-09-06T04:26:07.622Z,20.33
2022-09-06T04:28:35.459Z,20.29
2022-09-06T04:31:05.641Z,20.32
2022-09-06T04:33:35.236Z,20.11
2022-09-06T04:36:04.780Z,20.10
2022-09-06T04:38:36.946Z,20.02
2022-09-06T04:41:05.334Z,20.12
2022-09-06T04:43:33.010Z,20.02
2022-09-06T04:46:06.050Z,20.05
2022-09-06T04:48:34.052Z,19.98
2022-09-06T04:51:01.714Z,19.91
2022-09-06T04:53:29.363Z,19.88
2022-09-06T04:55:58.053Z,19.89
2022-09-06T04:58:26.279Z,19.86
2022-09-06T05:00:54.151Z,19.91
2022-09-06T05:03:23.164Z,19.78
2022-09-06T05:05:50.762Z,19.78
2022-09-06T05:08:18.821Z,19.71
2022-09-06T05:10:46.459Z,19.75
2022-09-06T05:13:14.218Z,19.81
2022-09-06T05:15:43.223Z,19.80
2022-09-06T05:18:14.160Z,19.86
2022-09-06T05:20:45.010Z,19.76
2022-09-06T05:23:12.678Z,19.76
2022-09-06T05:25:40.346Z,19.81
2022-09-06T05:28:08.005Z,19.86
2022-09-06T05:30:35.699Z,19.94
2022-09-06T05:33:03.337Z,19.98
2022-09-06T05:35:31.023Z,20.08
2022-09-06T05:38:00.186Z,20.18
2022-09-06T05:40:27.942Z,20.31
2022-09-06T05:42:55.637Z,20.41
2022-09-06T05:45:23.601Z,20.68
2022-09-06T05:47:51.250Z,20.88
2022-09-06T05:50:19.030Z,20.94
2022-09-06T05:52:47.413Z,21.11
2022-09-06T05:55:16.495Z,21.31
2022-09-06T05:57:44.149Z,21.43
2022-09-06T06:00:13.432Z,21.43
2022-09-06T06:02:41.164Z,22.27
2022-09-06T06:05:09.399Z,23.99
2022-09-06T06:07:37.023Z,26.12
2022-09-06T06:10:05.378Z,27.48
2022-09-06T06:12:34.417Z,28.01
2022-09-06T06:15:02.343Z,29.11
2022-09-06T06:17:30.052Z,30.10
2022-09-06T06:19:58.312Z,30.31
2022-09-06T06:22:25.990Z,30.37
2022-09-06T06:24:53.720Z,29.53
2022-09-06T06:27:21.464Z,29.20
2022-09-06T06:29:50.590Z,29.61
2022-09-06T06:32:18.292Z,30.34
2022-09-06T06:34:45.967Z,30.88
2022-09-06T06:37:13.712Z,30.05
2022-09-06T06:39:41.411Z,28.23
2022-09-06T06:42:09.247Z,26.92
2022-09-06T06:44:36.977Z,26.45
2022-09-06T06:47:07.135Z,26.24
2022-09-06T06:49:34.815Z,26.01
2022-09-06T06:52:02.476Z,25.32
2022-09-06T06:54:30.741Z,24.79
2022-09-06T06:56:58.389Z,24.37
2022-09-06T06:59:26.030Z,24.09
2022-09-06T07:01:53.809Z,23.80
2022-09-06T07:04:23.171Z,24.04
2022-09-06T07:12:28.003Z,28.63
2022-09-06T07:14:55.644Z,29.60
2022-09-06T07:17:23.487Z,30.19
2022-09-06T07:22:41.211Z,30.36
2022-09-06T07:25:10.445Z,30.85
2022-09-06T07:30:14.205Z,29.80
2022-09-06T07:32:41.941Z,30.02
2022-09-06T07:35:12.289Z,30.94
2022-09-06T07:37:40.056Z,31.82
2022-09-06T07:40:08.711Z,32.24
2022-09-06T07:42:36.923Z,31.61
2022-09-06T07:45:05.115Z,30.37
2022-09-06T07:53:13.985Z,29.44
2022-09-06T07:55:45.280Z,30.27
2022-09-06T07:58:12.942Z,30.24
2022-09-06T08:00:41.127Z,29.53
2022-09-06T08:03:09.093Z,29.05
2022-09-06T08:11:14.502Z,30.55
2022-09-06T08:13:42.384Z,30.95
2022-09-06T08:16:12.713Z,31.45
2022-09-06T08:18:40.432Z,31.11
2022-09-06T08:21:12.863Z,30.88
2022-09-06T08:23:43.053Z,31.08
2022-09-06T08:26:10.683Z,30.26
2022-09-06T08:28:39.813Z,29.94
2022-09-06T08:31:09.538Z,31.03
2022-09-06T08:33:37.603Z,31.37
2022-09-06T08:36:06.583Z,31.53
2022-09-06T08:38:38.480Z,31.37
2022-09-06T08:41:12.000Z,31.64
2022-09-06T08:43:40.135Z,30.74
2022-09-06T08:46:09.409Z,30.68
2022-09-06T08:48:39.860Z,31.50
2022-09-06T08:51:28.284Z,31.16
2022-09-06T08:54:05.933Z,30.82
2022-09-06T08:56:38.435Z,31.33
2022-09-06T08:59:07.890Z,31.53
2022-09-06T09:01:47.116Z,30.99
2022-09-06T09:04:21.297Z,31.00
2022-09-06T09:06:53.230Z,30.89
2022-09-06T09:09:22.486Z,30.09
2022-09-06T09:11:52.057Z,30.06
2022-09-06T09:14:23.791Z,30.13
2022-09-06T09:16:52.390Z,30.34
2022-09-06T09:19:20.002Z,30.14
2022-09-06T09:21:47.901Z,29.58
2022-09-06T09:24:16.813Z,29.41
2022-09-06T09:26:52.772Z,29.48
2022-09-06T09:29:26.797Z,28.59
2022-09-06T09:31:56.698Z,28.56
2022-09-06T09:34:33.561Z,28.10
2022-09-06T09:40:07.930Z,27.54
2022-09-06T09:42:38.446Z,27.55
2022-09-06T09:45:23.530Z,27.65
2022-09-06T09:47:51.247Z,27.67
2022-09-06T09:50:25.799Z,27.56
2022-09-06T09:52:53.469Z,27.86
2022-09-06T09:55:24.286Z,27.84
2022-09-06T09:57:54.842Z,28.01
2022-09-06T10:00:39.796Z,28.05
2022-09-06T10:03:15.305Z,27.80
2022-09-06T10:05:44.287Z,27.81
2022-09-06T10:08:14.067Z,27.87
2022-09-06T10:10:44.083Z,27.90
2022-09-06T10:13:20.655Z,28.07
2022-09-06T10:15:49.625Z,27.93
2022-09-06T10:18:29.740Z,27.75
2022-09-06T10:21:00.516Z,28.02
2022-09-06T10:26:33.606Z,27.98
2022-09-06T10:29:06.108Z,28.03
2022-09-06T10:31:57.315Z,28.11
2022-09-06T10:34:42.686Z,28.27
2022-09-06T10:37:25.201Z,28.39
2022-09-06T10:39:57.017Z,28.39
2022-09-06T10:42:36.571Z,28.48
2022-09-06T10:45:21.526Z,28.49
2022-09-06T10:47:57.126Z,28.57
2022-09-06T10:50:30.141Z,28.70
2022-09-06T10:53:05.347Z,28.92
2022-09-06T10:55:33.516Z,28.96
2022-09-06T10:58:20.638Z,28.78
2022-09-06T11:00:53.694Z,28.67
2022-09-06T11:06:18.373Z,28.91
2022-09-06T11:08:53.399Z,28.99
2022-09-06T11:11:27.279Z,28.92
2022-09-06T11:13:54.858Z,28.67
2022-09-06T11:16:27.393Z,28.60
2022-09-06T11:19:00.066Z,28.51
2022-09-06T11:21:57.315Z,28.66
2022-09-06T11:24:41.405Z,28.55
2022-09-06T11:27:16.663Z,28.73
2022-09-06T11:29:47.862Z,28.68
2022-09-06T11:32:32.822Z,28.77
2022-09-06T11:35:04.396Z,28.72
2022-09-06T11:37:34.827Z,28.84
2022-09-06T11:43:39.637Z,28.96
2022-09-06T11:46:07.377Z,29.04
2022-09-06T11:48:49.845Z,29.04
2022-09-06T11:51:34.473Z,29.18
2022-09-06T11:54:07.272Z,29.34
2022-09-06T11:56:41.687Z,29.27
2022-09-06T11:59:24.420Z,29.23
2022-09-06T12:02:02.027Z,29.37
2022-09-06T12:05:08.008Z,29.38
2022-09-06T12:07:38.742Z,29.30
2022-09-06T12:10:39.614Z,29.26
2022-09-06T12:13:41.452Z,29.31
2022-09-06T12:16:10.086Z,29.30
2022-09-06T12:18:56.034Z,29.40
2022-09-06T12:21:47.406Z,29.44
2022-09-06T12:24:55.037Z,29.44
2022-09-06T12:27:24.371Z,29.47
2022-09-06T12:29:59.294Z,29.60
2022-09-06T12:32:33.631Z,29.44
2022-09-06T12:37:58.361Z,29.88
2022-09-06T12:40:30.389Z,29.83
2022-09-06T12:42:59.104Z,29.76
2022-09-06T12:45:27.715Z,29.90
2022-09-06T12:48:07.123Z,29.82
2022-09-06T12:50:34.913Z,29.89
2022-09-06T12:53:04.585Z,30.04
2022-09-06T12:55:36.069Z,30.06
2022-09-06T12:58:06.248Z,30.23
2022-09-06T13:00:37.980Z,30.28
2022-09-06T13:03:17.680Z,30.19
2022-09-06T13:05:47.201Z,30.15
2022-09-06T13:08:18.793Z,30.17
2022-09-06T13:10:48.689Z,30.35
2022-09-06T13:13:20.655Z,30.36
2022-09-06T13:15:48.473Z,30.40
2022-09-06T13:18:27.820Z,30.43
2022-09-06T13:21:00.513Z,30.50
2022-09-06T13:23:28.869Z,30.33
2022-09-06T13:25:58.253Z,30.41
2022-09-06T13:28:28.574Z,30.58
2022-09-06T13:31:09.122Z,30.44
2022-09-06T13:33:38.314Z,30.63
2022-09-06T13:36:20.275Z,30.67
2022-09-06T13:38:47.954Z,30.52
2022-09-06T13:41:42.854Z,30.52
2022-09-06T13:44:28.355Z,30.49
2022-09-06T13:46:56.463Z,30.43
2022-09-06T13:49:24.696Z,30.47
2022-09-06T13:51:53.917Z,30.45
2022-09-06T13:54:22.698Z,30.47
2022-09-06T13:56:51.663Z,30.61
2022-09-06T13:59:20.239Z,30.72
2022-09-06T14:01:50.885Z,30.75
2022-09-06T14:04:21.487Z,30.70
2022-09-06T14:06:50.839Z,30.66
2022-09-06T14:09:18.816Z,30.68
2022-09-06T14:11:48.366Z,30.74
2022-09-06T14:14:18.538Z,30.69
2022-09-06T14:16:47.576Z,30.57
2022-09-06T14:19:15.949Z,30.57
2022-09-06T14:21:44.348Z,30.65
2022-09-06T14:24:12.215Z,30.63
2022-09-06T14:26:40.074Z,30.64
2022-09-06T14:29:08.159Z,30.55
2022-09-06T14:31:37.401Z,30.64
2022-09-06T14:34:05.119Z,30.73
2022-09-06T14:36:34.188Z,30.76
2022-09-06T14:39:02.763Z,30.84
2022-09-06T14:41:30.493Z,30.94
2022-09-06T14:43:59.493Z,30.86
2022-09-06T14:46:29.667Z,30.90
2022-09-06T14:49:00.867Z,30.96
2022-09-06T14:51:29.328Z,30.92
2022-09-06T14:53:59.262Z,30.94
2022-09-06T14:56:27.234Z,30.99
2022-09-06T14:58:57.383Z,31.04
2022-09-06T15:01:27.192Z,30.91
2022-09-06T15:03:57.024Z,30.74
2022-09-06T15:06:27.947Z,30.40
2022-09-06T15:08:59.132Z,30.35
2022-09-06T15:11:33.293Z,30.29
2022-09-06T15:14:01.495Z,30.42
2022-09-06T15:16:29.904Z,30.25
2022-09-06T15:18:58.401Z,30.19
2022-09-06T15:21:27.478Z,30.05
2022-09-06T15:23:55.444Z,29.90
2022-09-06T15:26:23.118Z,29.63
2022-09-06T15:28:51.094Z,29.46
2022-09-06T15:31:19.630Z,29.23
2022-09-06T15:33:48.874Z,29.19
2022-09-06T15:36:17.491Z,29.13
2022-09-06T15:38:48.516Z,29.06
2022-09-06T15:41:20.249Z,29.03
2022-09-06T15:43:49.192Z,29.08
2022-09-06T15:46:18.732Z,29.08
2022-09-06T15:48:48.721Z,29.08
2022-09-06T15:51:18.630Z,29.05
2022-09-06T15:53:48.210Z,28.96
2022-09-06T15:56:17.529Z,28.81
2022-09-06T15:58:46.443Z,28.79
2022-09-06T16:01:15.866Z,28.79
2022-09-06T16:03:46.303Z,28.71
2022-09-06T16:06:25.818Z,28.53
2022-09-06T16:08:59.348Z,28.35
2022-09-06T16:11:28.276Z,28.23
2022-09-06T16:13:56.016Z,28.12
2022-09-06T16:16:24.101Z,28.05
2022-09-06T16:18:52.975Z,28.03
2022-09-06T16:21:23.975Z,27.94
2022-09-06T16:23:53.468Z,27.88
2022-09-06T16:26:23.271Z,27.82
2022-09-06T16:28:52.761Z,27.72
2022-09-06T16:31:22.328Z,27.68
2022-09-06T16:33:52.928Z,27.58
2022-09-06T16:36:22.441Z,27.53
2022-09-06T16:38:53.193Z,27.49
2022-09-06T16:41:25.812Z,27.43
2022-09-06T16:43:53.804Z,27.47
2022-09-06T16:46:23.281Z,27.39
2022-09-06T16:48:54.839Z,27.29
2022-09-06T16:51:25.784Z,27.29
2022-09-06T16:53:53.955Z,27.25
2022-09-06T16:56:25.617Z,27.24
2022-09-06T16:59:01.663Z,27.20
2022-09-06T17:01:31.237Z,27.18
2022-09-06T17:04:01.819Z,26.93
2022-09-06T17:06:30.395Z,26.66
2022-09-06T17:08:59.209Z,26.35
2022-09-06T17:11:29.415Z,25.90
2022-09-06T17:13:58.378Z,25.65
2022-09-06T17:16:44.517Z,25.36
2022-09-06T17:19:13.430Z,25.21
2022-09-06T17:21:41.145Z,25.02
2022-09-06T17:24:09.645Z,24.80
2022-09-06T17:26:40.259Z,24.32
2022-09-06T17:29:08.623Z,24.11
2022-09-06T17:31:37.784Z,23.85
2022-09-06T17:34:07.662Z,23.59
2022-09-06T17:36:35.828Z,23.43
2022-09-06T17:39:05.969Z,23.26
2022-09-06T17:41:37.791Z,23.29
2022-09-06T17:44:11.417Z,22.97
2022-09-06T17:46:47.954Z,22.87
2022-09-06T17:49:25.959Z,22.59
2022-09-06T17:51:54.185Z,22.61
2022-09-06T17:54:23.415Z,22.44
2022-09-06T17:56:51.096Z,22.38
2022-09-06T17:59:23.184Z,22.29
2022-09-06T18:01:58.041Z,22.19
2022-09-06T18:04:26.285Z,22.03
2022-09-06T18:06:53.920Z,21.88
2022-09-06T18:09:21.588Z,21.90
2022-09-06T18:11:49.378Z,21.87
2022-09-06T18:14:21.112Z,21.74
2022-09-06T18:16:53.137Z,21.73
2022-09-06T18:19:22.259Z,21.61
2022-09-06T18:21:50.159Z,21.52
2022-09-06T18:24:18.266Z,21.55
2022-09-06T18:26:46.443Z,21.68
2022-09-06T18:29:16.585Z,21.77
2022-09-06T18:31:45.801Z,21.71
2022-09-06T18:34:16.430Z,21.69
2022-09-06T18:36:44.089Z,21.78
2022-09-06T18:39:13.154Z,21.67
2022-09-06T18:41:58.533Z,21.57
2022-09-06T18:44:30.212Z,21.44
2022-09-06T18:47:01.158Z,21.52
2022-09-06T18:49:31.258Z,21.33
2022-09-06T18:51:59.525Z,21.22
2022-09-06T18:54:27.185Z,21.00
2022-09-06T18:56:55.732Z,21.04
2022-09-06T18:59:23.733Z,21.31
2022-09-06T19:01:51.596Z,21.47
2022-09-06T19:04:19.366Z,21.47
2022-09-06T19:06:48.304Z,21.48
2022-09-06T19:09:17.563Z,21.71
2022-09-06T19:11:46.939Z,21.92
2022-09-06T19:14:14.664Z,21.89
2022-09-06T19:16:43.849Z,21.71
2022-09-06T19:19:13.334Z,21.57
2022-09-06T19:21:42.533Z,21.57
2022-09-06T19:24:14.523Z,21.58
2022-09-06T19:26:44.612Z,21.54
2022-09-06T19:29:15.268Z,21.47
2022-09-06T19:31:44.094Z,21.35
2022-09-06T19:34:13.443Z,21.19
2022-09-06T19:36:41.314Z,21.11
2022-09-06T19:39:14.248Z,21.11
2022-09-06T19:41:44.933Z,20.98
2022-09-06T19:44:13.389Z,20.93
2022-09-06T19:46:45.768Z,20.91
2022-09-06T19:49:14.956Z,20.91
2022-09-06T19:51:43.793Z,20.96
2022-09-06T19:54:15.324Z,20.87
2022-09-06T19:56:44.092Z,20.77
2022-09-06T19:59:13.080Z,20.68
2022-09-06T20:01:42.458Z,20.78
2022-09-06T20:04:13.218Z,20.69
2022-09-06T20:06:41.618Z,20.60
2022-09-06T20:09:11.010Z,20.54
2022-09-06T20:11:41.668Z,20.46
2022-09-06T20:14:09.908Z,20.33
2022-09-06T20:16:41.376Z,20.22
2022-09-06T20:19:09.369Z,20.25
2022-09-06T20:21:36.971Z,20.12
2022-09-06T20:24:04.721Z,20.09
2022-09-06T20:26:34.058Z,19.98
2022-09-06T20:29:04.600Z,19.97
2022-09-06T20:31:33.700Z,19.94
2022-09-06T20:34:04.193Z,19.98
2022-09-06T20:36:32.384Z,19.91
2022-09-06T20:39:00.071Z,19.89
2022-09-06T20:41:28.302Z,19.89
2022-09-06T20:43:57.860Z,19.89
2022-09-06T20:46:28.559Z,19.90
2022-09-06T20:48:57.856Z,19.89
2022-09-06T20:51:25.896Z,19.89
2022-09-06T20:53:56.047Z,19.99
2022-09-06T20:56:25.815Z,19.88
2022-09-06T20:58:55.887Z,20.01
2022-09-06T21:01:28.005Z,20.25
2022-09-06T21:04:00.494Z,20.11
2022-09-06T21:06:46.187Z,20.07
2022-09-06T21:09:16.860Z,19.94
2022-09-06T21:11:45.205Z,19.82
2022-09-06T21:14:13.985Z,19.79
2022-09-06T21:16:44.214Z,19.81
2022-09-06T21:19:13.807Z,19.74
2022-09-06T21:21:42.033Z,19.80
2022-09-06T21:24:11.005Z,19.75
2022-09-06T21:26:39.076Z,19.78
2022-09-06T21:29:07.022Z,19.72
2022-09-06T21:31:37.182Z,19.71
2022-09-06T21:34:16.270Z,19.63
2022-09-06T21:36:48.064Z,19.61
2022-09-06T21:39:16.188Z,19.58
2022-09-06T21:41:45.701Z,19.57
2022-09-06T21:44:13.734Z,19.51
2022-09-06T21:46:42.316Z,19.51
2022-09-06T21:49:13.198Z,19.46
2022-09-06T21:51:41.547Z,19.51
2022-09-06T21:54:09.363Z,19.49
2022-09-06T21:56:38.536Z,19.44
2022-09-06T21:59:06.905Z,19.43
2022-09-06T22:01:36.759Z,19.40
2022-09-06T22:04:04.856Z,19.47
2022-09-06T22:06:35.551Z,19.43
2022-09-06T22:09:07.643Z,19.40
2022-09-06T22:11:39.547Z,19.39
2022-09-06T22:14:09.532Z,19.40
2022-09-06T22:16:40.223Z,19.51
2022-09-06T22:19:08.774Z,19.44
2022-09-06T22:21:38.566Z,19.43
2022-09-06T22:24:08.480Z,19.34
2022-09-06T22:26:38.001Z,19.27
2022-09-06T22:29:07.833Z,19.27
2022-09-06T22:31:36.094Z,19.25
2022-09-06T22:34:04.176Z,19.23
2022-09-06T22:36:31.885Z,19.27
2022-09-06T22:39:00.988Z,19.33
2022-09-06T22:41:31.653Z,19.34
2022-09-06T22:44:00.551Z,19.37
2022-09-06T22:46:28.792Z,19.36
2022-09-06T22:48:56.482Z,19.39
2022-09-06T22:51:24.182Z,19.36
2022-09-06T22:53:51.890Z,19.38
2022-09-06T22:56:21.059Z,19.42
2022-09-06T22:58:48.722Z,19.45
2022-09-06T23:01:17.710Z,19.44
2022-09-06T23:03:46.438Z,19.44
2022-09-06T23:06:14.115Z,19.40
2022-09-06T23:08:42.383Z,19.37
2022-09-06T23:11:12.222Z,19.38
2022-09-06T23:13:43.764Z,19.49
2022-09-06T23:16:13.438Z,19.53
2022-09-06T23:18:41.291Z,19.51
2022-09-06T23:21:10.686Z,19.53
2022-09-06T23:23:39.275Z,19.58
2022-09-06T23:26:08.985Z,19.53
2022-09-06T23:28:37.103Z,19.53
2022-09-06T23:31:07.573Z,19.44
2022-09-06T23:33:37.297Z,19.34
2022-09-06T23:36:06.094Z,19.32
2022-09-06T23:38:34.427Z,19.31
2022-09-06T23:41:02.092Z,19.32
2022-09-06T23:43:30.245Z,19.36
2022-09-06T23:45:58.478Z,19.36
2022-09-06T23:48:27.498Z,19.42
2022-09-06T23:50:55.154Z,19.48
2022-09-06T23:53:23.327Z,19.46
2022-09-06T23:55:51.399Z,19.58
2022-09-06T23:58:19.053Z,19.58
